Time;durP1;ratioP1;P1;durP2;ratioP2;P2;SDS_P1;SDS_P2;PMS_P1;PMS_P2;Temp;Humidity;BMP_temperature;BMP_pressure;BME280_temperature;BME280_humidity;BME280_pressure;Samples;Min_cycle;Max_cycle;Signal;HPM_P1;HPM_P2
2024/01/18 00:01:12;;;;;;;1.17;0.60;;;;;;;-1.99;100.00;99361.88;4999289;28;20038;-72
2024/01/18 00:03:59;;;;;;;0.60;0.60;;;;;;;-1.95;100.00;99381.72;5013124;28;20502;-73
2024/01/18 00:06:45;;;;;;;3.50;0.77;;;;;;;-1.93;100.00;99382.53;5017418;28;20040;-72
2024/01/18 00:09:30;;;;;;;1.65;0.70;;;;;;;-1.93;100.00;99379.94;5018115;28;20034;-72
2024/01/18 00:12:16;;;;;;;0.50;0.50;;;;;;;-1.92;100.00;99384.25;5018943;28;20231;-72
2024/01/18 00:15:02;;;;;;;1.15;0.50;;;;;;;-1.88;100.00;99383.31;5016566;28;20045;-73
2024/01/18 00:17:48;;;;;;;0.65;0.50;;;;;;;-1.85;100.00;99379.81;5008504;28;20051;-72
2024/01/18 00:20:35;;;;;;;2.05;0.60;;;;;;;-1.81;100.00;99371.94;5016696;28;20042;-73
2024/01/18 00:23:21;;;;;;;0.50;0.50;;;;;;;-1.75;100.00;99380.50;5017398;28;20033;-73
2024/01/18 00:26:07;;;;;;;0.50;0.50;;;;;;;-1.71;100.00;99376.94;5014127;28;20049;-73
2024/01/18 00:28:53;;;;;;;0.85;0.80;;;;;;;-1.70;100.00;99378.69;5001179;28;20041;-72
2024/01/18 00:31:39;;;;;;;0.50;0.50;;;;;;;-1.71;100.00;99375.22;5011363;28;20045;-72
2024/01/18 00:34:25;;;;;;;2.50;0.70;;;;;;;-1.73;100.00;99379.59;5013786;28;20095;-71
2024/01/18 00:37:10;;;;;;;1.75;0.60;;;;;;;-1.74;100.00;99377.84;5015228;28;20055;-73
2024/01/18 00:39:56;;;;;;;2.35;0.85;;;;;;;-1.78;100.00;99377.06;5014869;28;20034;-72
2024/01/18 00:42:42;;;;;;;2.00;0.60;;;;;;;-1.79;100.00;99387.50;5011981;28;20119;-73
2024/01/18 00:45:27;;;;;;;0.50;0.50;;;;;;;-1.82;100.00;99387.53;5013426;28;20041;-73
2024/01/18 00:48:13;;;;;;;0.55;0.55;;;;;;;-1.89;100.00;99383.34;5014067;28;20085;-72
2024/01/18 00:50:59;;;;;;;2.67;0.70;;;;;;;-1.97;100.00;99397.28;5013260;28;20117;-73
2024/01/18 00:53:44;;;;;;;0.40;0.40;;;;;;;-2.02;100.00;99404.28;5014441;28;20468;-73
2024/01/18 00:56:30;;;;;;;1.13;0.70;;;;;;;-2.08;100.00;99409.59;5013617;28;22187;-73
2024/01/18 00:59:16;;;;;;;2.60;1.00;;;;;;;-2.14;100.00;99415.72;5013493;28;20392;-72
2024/01/18 01:02:03;;;;;;;2.08;0.70;;;;;;;-2.21;100.00;99414.13;5013912;28;20034;-73
2024/01/18 01:04:49;;;;;;;0.60;0.60;;;;;;;-2.26;100.00;99426.28;5014140;28;20033;-73
2024/01/18 01:07:35;;;;;;;0.77;0.77;;;;;;;-2.32;100.00;99438.50;5012246;28;20060;-73
2024/01/18 01:10:21;;;;;;;1.92;0.70;;;;;;;-2.36;100.00;99435.94;5015928;28;21589;-73
2024/01/18 01:13:08;;;;;;;0.82;0.82;;;;;;;-2.38;100.00;99448.09;5014034;28;20041;-73
2024/01/18 01:15:53;;;;;;;1.65;0.70;;;;;;;-2.42;100.00;99449.88;5017008;28;20044;-73
2024/01/18 01:18:39;;;;;;;3.15;0.80;;;;;;;-2.46;100.00;99450.78;5013684;28;20068;-73
2024/01/18 01:21:25;;;;;;;0.65;0.60;;;;;;;-2.45;100.00;99468.06;5011115;28;20038;-73
2024/01/18 01:24:11;;;;;;;0.82;0.80;;;;;;;-2.48;100.00;99473.28;5013035;28;20069;-73
2024/01/18 01:26:56;;;;;;;0.70;0.70;;;;;;;-2.49;100.00;99474.16;5011622;28;20038;-73
2024/01/18 01:29:42;;;;;;;0.60;0.60;;;;;;;-2.52;100.00;99464.69;5013098;28;20489;-73
2024/01/18 01:32:28;;;;;;;1.10;0.82;;;;;;;-2.53;100.00;99464.69;5011768;28;20033;-73
2024/01/18 01:35:14;;;;;;;1.13;0.70;;;;;;;-2.55;100.00;99469.06;5013450;28;20764;-73
2024/01/18 01:38:00;;;;;;;0.70;0.70;;;;;;;-2.55;100.00;99466.47;5012300;28;20045;-72
2024/01/18 01:40:45;;;;;;;1.85;0.77;;;;;;;-2.54;100.00;99479.41;5015129;28;20057;-72
2024/01/18 01:43:31;;;;;;;0.80;0.80;;;;;;;-2.51;100.00;99465.56;4992668;28;20038;-73
2024/01/18 01:46:17;;;;;;;0.98;0.75;;;;;;;-2.49;100.00;99463.78;5015167;28;20397;-72
2024/01/18 01:49:05;;;;;;;1.35;0.90;;;;;;;-2.47;100.00;99465.50;5014474;28;20033;-72
2024/01/18 01:51:51;;;;;;;1.08;0.90;;;;;;;-2.48;100.00;99470.69;5013489;28;20041;-72
2024/01/18 01:54:37;;;;;;;1.30;0.88;;;;;;;-2.49;100.00;99471.56;5012114;28;20041;-73
2024/01/18 01:57:23;;;;;;;1.00;0.90;;;;;;;-2.50;100.00;99475.88;4997920;28;20041;-73
2024/01/18 02:00:10;;;;;;;3.80;1.08;;;;;;;-2.52;100.00;99476.78;5011061;28;20472;-72
2024/01/18 02:02:55;;;;;;;1.70;1.20;;;;;;;-2.56;100.00;99480.31;5011214;28;20112;-72
2024/01/18 02:05:41;;;;;;;1.15;0.88;;;;;;;-2.62;100.00;99476.06;5011038;28;20052;-73
2024/01/18 02:08:28;;;;;;;1.42;0.90;;;;;;;-2.66;100.00;99479.56;5010634;28;20037;-72
2024/01/18 02:11:14;;;;;;;0.70;0.70;;;;;;;-2.72;100.00;99475.34;5012265;28;20033;-72
2024/01/18 02:14:00;;;;;;;4.07;0.90;;;;;;;-2.74;100.00;99482.25;5016553;28;20045;-72
2024/01/18 02:16:45;;;;;;;1.42;0.90;;;;;;;-2.77;100.00;99472.78;5014844;28;20092;-73
2024/01/18 02:19:32;;;;;;;1.02;0.70;;;;;;;-2.78;100.00;99481.44;5010114;28;20041;-72
2024/01/18 02:22:18;;;;;;;4.53;0.90;;;;;;;-2.79;100.00;99482.31;5012419;28;20041;-73
2024/01/18 02:25:28;;;;;;;1.58;0.65;;;;;;;-2.79;100.00;99481.47;5012053;28;20476;-73
2024/01/18 02:28:15;;;;;;;4.53;0.80;;;;;;;-2.79;100.00;99482.31;5012060;28;20030;-72
2024/01/18 02:31:01;;;;;;;1.23;0.70;;;;;;;-2.80;100.00;99484.91;5012364;28;20044;-72
2024/01/18 02:33:48;;;;;;;1.88;0.75;;;;;;;-2.80;100.00;99487.50;5010845;28;20057;-73
2024/01/18 02:36:34;;;;;;;5.55;0.82;;;;;;;-2.76;100.00;99495.25;5010856;28;20047;-72
2024/01/18 02:39:20;;;;;;;1.42;0.80;;;;;;;-2.74;100.00;99495.19;5012307;28;20079;-72
2024/01/18 02:42:06;;;;;;;1.80;1.25;;;;;;;-2.75;100.00;99490.91;5010034;28;20103;-73
2024/01/18 02:44:54;;;;;;;3.08;0.70;;;;;;;-2.77;100.00;99487.47;5011540;28;20119;-70
2024/01/18 02:47:41;;;;;;;1.70;0.70;;;;;;;-2.79;100.00;99489.25;5011806;28;20049;-72
2024/01/18 02:50:26;;;;;;;2.53;0.88;;;;;;;-2.80;100.00;99492.69;5009451;28;20048;-72
2024/01/18 02:53:12;;;;;;;1.13;0.70;;;;;;;-2.83;100.00;99484.97;5010705;28;20037;-72
2024/01/18 02:55:58;;;;;;;4.55;1.02;;;;;;;-2.87;100.00;99487.56;5011871;28;20037;-72
2024/01/18 02:58:44;;;;;;;4.63;0.82;;;;;;;-2.88;100.00;99485.03;5012767;28;20037;-72
2024/01/18 03:01:30;;;;;;;0.65;0.65;;;;;;;-2.89;100.00;99494.53;5010172;28;20044;-72
2024/01/18 03:04:16;;;;;;;0.63;0.63;;;;;;;-2.89;100.00;99489.34;5009721;28;20038;-72
2024/01/18 03:07:02;;;;;;;1.40;0.70;;;;;;;-2.87;100.00;99497.09;5010809;28;20042;-72
2024/01/18 03:09:48;;;;;;;0.93;0.80;;;;;;;-2.83;100.00;99503.09;5010826;28;20041;-72
2024/01/18 03:12:37;;;;;;;0.60;0.60;;;;;;;-2.83;100.00;99500.50;5011856;28;20045;-72
2024/01/18 03:15:22;;;;;;;0.93;0.70;;;;;;;-2.82;100.00;99500.50;5009235;28;20049;-72
2024/01/18 03:18:08;;;;;;;2.00;0.90;;;;;;;-2.80;100.00;99513.41;5010665;28;20803;-72
2024/01/18 03:20:55;;;;;;;2.05;1.30;;;;;;;-2.80;100.00;99514.28;5008836;28;20064;-72
2024/01/18 03:23:40;;;;;;;1.85;0.88;;;;;;;-2.81;100.00;99530.72;5011260;28;20077;-73
2024/01/18 03:26:26;;;;;;;2.72;0.93;;;;;;;-2.88;100.00;99535.09;5011419;28;20495;-72
2024/01/18 03:29:12;;;;;;;0.75;0.75;;;;;;;-2.95;100.00;99536.03;5013581;28;20034;-72
2024/01/18 03:31:57;;;;;;;2.10;0.88;;;;;;;-2.99;100.00;99534.38;5014002;28;20400;-72
2024/01/18 03:34:43;;;;;;;1.35;0.90;;;;;;;-3.02;100.00;99534.38;5015955;28;20049;-73
2024/01/18 03:37:29;;;;;;;1.25;0.60;;;;;;;-3.03;100.00;99523.19;4999080;28;20404;-72
2024/01/18 03:40:15;;;;;;;2.80;0.85;;;;;;;-3.03;100.00;99518.00;5015095;28;20044;-72
2024/01/18 03:43:01;;;;;;;0.98;0.77;;;;;;;-3.04;100.00;99520.59;5015906;28;20048;-72
2024/01/18 03:45:47;;;;;;;3.80;1.00;;;;;;;-3.05;100.00;99526.66;5013556;28;20040;-72
2024/01/18 03:48:33;;;;;;;1.85;0.90;;;;;;;-3.06;100.00;99523.19;5022691;28;20531;-72
2024/01/18 03:51:18;;;;;;;3.13;1.10;;;;;;;-3.07;100.00;99524.06;5013084;28;20575;-72
2024/01/18 03:54:04;;;;;;;1.20;1.10;;;;;;;-3.09;100.00;99517.19;5012371;28;20041;-72
2024/01/18 03:56:50;;;;;;;2.92;1.35;;;;;;;-3.11;100.00;99518.94;5013110;28;20045;-72
2024/01/18 03:59:35;;;;;;;3.00;1.10;;;;;;;-3.15;100.00;99518.97;5014430;28;20069;-72
2024/01/18 04:02:21;;;;;;;1.65;1.55;;;;;;;-3.19;100.00;99516.44;5013142;28;20136;-73
2024/01/18 04:05:07;;;;;;;4.20;1.77;;;;;;;-3.22;100.00;99514.72;5013085;28;20029;-73
2024/01/18 04:07:53;;;;;;;2.38;1.40;;;;;;;-3.28;100.00;99512.19;5011209;28;20040;-72
2024/01/18 04:10:39;;;;;;;1.90;1.20;;;;;;;-3.34;100.00;99518.31;5012897;28;20042;-72
2024/01/18 04:13:24;;;;;;;4.80;1.40;;;;;;;-3.37;100.00;99527.81;5029541;28;20041;-72
2024/01/18 04:16:11;;;;;;;1.17;1.13;;;;;;;-3.41;100.00;99527.88;5014156;28;20041;-71
2024/01/18 04:18:57;;;;;;;1.70;1.20;;;;;;;-3.43;100.00;99533.94;5014300;28;20065;-70
2024/01/18 04:21:43;;;;;;;1.88;1.40;;;;;;;-3.45;100.00;99536.53;5014972;28;20041;-70
2024/01/18 04:24:29;;;;;;;2.40;1.55;;;;;;;-3.46;100.00;99540.00;5026464;28;20057;-70
2024/01/18 04:27:14;;;;;;;2.85;1.38;;;;;;;-3.47;100.00;99555.53;5015730;28;20072;-71
2024/01/18 04:30:00;;;;;;;2.10;1.20;;;;;;;-3.46;100.00;99549.47;5013356;28;20034;-71
2024/01/18 04:32:46;;;;;;;2.30;1.00;;;;;;;-3.47;100.00;99540.88;5013108;28;20057;-70
2024/01/18 04:35:32;;;;;;;0.80;0.80;;;;;;;-3.47;100.00;99543.44;5011866;28;20041;-70
2024/01/18 04:38:18;;;;;;;1.00;0.90;;;;;;;-3.46;100.00;99545.16;5012205;28;20927;-71
2024/01/18 04:41:05;;;;;;;2.17;1.00;;;;;;;-3.45;100.00;99546.88;5013474;28;20044;-71
2024/01/18 04:43:50;;;;;;;3.70;0.93;;;;;;;-3.46;100.00;99550.34;5013610;28;20492;-71
2024/01/18 04:46:37;;;;;;;3.17;0.90;;;;;;;-3.48;100.00;99546.88;5013656;28;20042;-71
2024/01/18 04:49:23;;;;;;;1.38;0.98;;;;;;;-3.49;100.00;99547.75;5013324;28;20068;-71
2024/01/18 04:52:10;;;;;;;2.00;0.85;;;;;;;-3.52;100.00;99559.88;5013771;28;20127;-71
2024/01/18 04:54:58;;;;;;;1.27;0.93;;;;;;;-3.56;100.00;99561.63;5013723;28;20034;-71
2024/01/18 04:57:45;;;;;;;4.30;0.90;;;;;;;-3.61;100.00;99559.06;5012539;28;20099;-71
2024/01/18 05:00:30;;;;;;;1.27;0.95;;;;;;;-3.63;100.00;99550.47;5012619;28;20029;-71
2024/01/18 05:03:16;;;;;;;1.40;0.93;;;;;;;-3.66;100.00;99553.06;5012191;28;20037;-71
2024/01/18 05:06:02;;;;;;;0.80;0.80;;;;;;;-3.69;100.00;99556.53;5011204;28;20400;-71
2024/01/18 05:08:48;;;;;;;0.85;0.80;;;;;;;-3.74;100.00;99568.69;5013010;28;20041;-71
2024/01/18 05:11:34;;;;;;;1.85;0.98;;;;;;;-3.75;100.00;99586.78;5011917;28;20061;-71
2024/01/18 05:14:19;;;;;;;0.82;0.82;;;;;;;-3.72;100.00;99595.38;5013186;28;20059;-71
2024/01/18 05:17:10;;;;;;;2.38;1.20;;;;;;;-3.66;100.00;99606.56;5012679;28;20708;-70
2024/01/18 05:19:56;;;;;;;2.65;1.00;;;;;;;-3.63;100.00;99609.13;5012910;28;20041;-70
2024/01/18 05:22:42;;;;;;;1.10;0.80;;;;;;;-3.55;100.00;99617.69;5010027;28;20186;-71
2024/01/18 05:25:27;;;;;;;2.47;0.90;;;;;;;-3.51;100.00;99619.38;5009335;28;20065;-71
2024/01/18 05:28:13;;;;;;;1.02;0.80;;;;;;;-3.44;100.00;99621.06;5011639;28;20073;-71
2024/01/18 05:30:59;;;;;;;0.70;0.70;;;;;;;-3.34;100.00;99616.66;4998716;28;20042;-71
2024/01/18 05:33:45;;;;;;;2.90;0.70;;;;;;;-3.20;100.00;99619.16;5011958;28;20037;-71
2024/01/18 05:36:30;;;;;;;0.75;0.65;;;;;;;-3.10;100.00;99619.06;5009289;28;20041;-71
2024/01/18 05:39:16;;;;;;;1.63;0.88;;;;;;;-3.03;100.00;99616.41;5011427;28;20037;-71
2024/01/18 05:42:02;;;;;;;2.88;0.80;;;;;;;-2.95;100.00;99621.50;5012768;28;20021;-71
2024/01/18 05:44:48;;;;;;;1.33;0.70;;;;;;;-2.87;100.00;99622.28;5014155;28;20029;-71
2024/01/18 05:47:34;;;;;;;2.10;0.85;;;;;;;-2.74;100.00;99623.03;5011212;28;20136;-70
2024/01/18 05:50:19;;;;;;;6.93;0.80;;;;;;;-2.60;100.00;99624.63;5015014;28;20067;-71
2024/01/18 05:53:05;;;;;;;2.20;0.70;;;;;;;-2.48;100.00;99619.31;5011098;28;20116;-71
2024/01/18 05:55:51;;;;;;;0.65;0.60;;;;;;;-2.40;100.00;99619.22;5013087;28;20030;-71
2024/01/18 05:58:36;;;;;;;0.70;0.70;;;;;;;-2.37;100.00;99616.59;5000360;28;20115;-70
2024/01/18 06:01:22;;;;;;;2.00;0.90;;;;;;;-2.34;100.00;99613.13;5012207;28;20052;-71
2024/01/18 06:04:08;;;;;;;3.35;0.95;;;;;;;-2.35;100.00;99612.25;5010340;28;20106;-72
2024/01/18 06:06:54;;;;;;;1.30;0.90;;;;;;;-2.37;100.00;99608.81;5013879;28;20033;-71
2024/01/18 06:09:40;;;;;;;0.60;0.60;;;;;;;-2.39;100.00;99615.72;5014058;28;20874;-71
2024/01/18 06:12:25;;;;;;;0.80;0.80;;;;;;;-2.44;100.00;99609.78;5014630;28;20049;-72
2024/01/18 06:15:11;;;;;;;2.20;1.02;;;;;;;-2.48;100.00;99613.25;5015562;28;20045;-72
2024/01/18 06:18:03;;;;;;;0.85;0.85;;;;;;;-2.49;100.00;99611.56;5008645;28;20405;-72
2024/01/18 06:20:49;;;;;;;7.85;1.20;;;;;;;-2.53;100.00;99615.03;5014414;28;20142;-71
2024/01/18 06:23:35;;;;;;;4.28;1.80;;;;;;;-2.60;100.00;99617.69;5014316;28;20041;-71
2024/01/18 06:26:21;;;;;;;10.88;6.38;;;;;;;-2.64;100.00;99628.13;5012025;28;20572;-72
2024/01/18 06:29:07;;;;;;;7.43;5.38;;;;;;;-2.71;100.00;99627.34;5012098;28;20037;-72
2024/01/18 06:31:53;;;;;;;9.38;6.00;;;;;;;-2.76;100.00;99635.16;5011550;28;20075;-72
2024/01/18 06:34:39;;;;;;;5.90;4.57;;;;;;;-2.81;100.00;99636.06;5012335;28;20522;-72
2024/01/18 06:37:24;;;;;;;3.67;2.70;;;;;;;-2.85;100.00;99639.56;5024894;28;20037;-72
2024/01/18 06:40:11;;;;;;;4.25;2.47;;;;;;;-2.88;100.00;99641.31;5012849;28;20045;-71
2024/01/18 06:42:57;;;;;;;4.43;2.63;;;;;;;-2.91;100.00;99648.25;5011988;28;20127;-72
2024/01/18 06:45:42;;;;;;;10.70;3.20;;;;;;;-2.97;100.00;99650.88;5011483;28;20488;-71
2024/01/18 06:48:28;;;;;;;6.75;2.50;;;;;;;-3.00;100.00;99654.34;5010933;28;20052;-71
2024/01/18 06:51:14;;;;;;;5.85;2.60;;;;;;;-3.03;100.00;99663.03;5011661;28;20596;-71
2024/01/18 06:54:00;;;;;;;5.60;2.35;;;;;;;-3.07;100.00;99658.75;5005665;28;20045;-71
2024/01/18 06:56:46;;;;;;;3.83;2.15;;;;;;;-3.10;100.00;99666.56;5009498;28;20037;-71
2024/01/18 06:59:32;;;;;;;3.08;2.15;;;;;;;-3.12;100.00;99673.47;5009391;28;20053;-72
2024/01/18 07:02:18;;;;;;;5.25;1.70;;;;;;;-3.13;100.00;99671.75;5008912;28;20041;-72
2024/01/18 07:05:04;;;;;;;5.25;2.13;;;;;;;-3.16;100.00;99677.81;5014077;28;21628;-72
2024/01/18 07:07:50;;;;;;;6.13;1.83;;;;;;;-3.19;100.00;99675.25;5017105;28;20072;-71
2024/01/18 07:10:36;;;;;;;4.15;2.08;;;;;;;-3.20;100.00;99691.66;5005622;28;20037;-72
2024/01/18 07:13:22;;;;;;;3.50;1.70;;;;;;;-3.23;100.00;99685.66;5006028;28;20048;-72
2024/01/18 07:16:08;;;;;;;3.83;2.20;;;;;;;-3.25;100.00;99688.25;5018080;28;22018;-72
2024/01/18 07:18:54;;;;;;;4.15;2.30;;;;;;;-3.25;100.00;99688.25;5017100;28;20051;-71
2024/01/18 07:21:40;;;;;;;5.32;2.90;;;;;;;-3.28;100.00;99689.13;5017130;28;20033;-71
2024/01/18 07:24:30;;;;;;;14.63;6.05;;;;;;;-3.30;100.00;99687.41;5016894;28;20060;-72
2024/01/18 07:27:16;;;;;;;9.55;4.47;;;;;;;-3.31;100.00;99690.88;5017950;28;20041;-72
2024/01/18 07:30:03;;;;;;;19.90;9.20;;;;;;;-3.34;100.00;99683.09;5015836;28;20045;-72
2024/01/18 07:32:48;;;;;;;18.45;8.88;;;;;;;-3.36;100.00;99695.22;5018043;28;20711;-72
2024/01/18 07:35:34;;;;;;;19.00;9.57;;;;;;;-3.39;100.00;99693.50;5015457;28;20044;-72
2024/01/18 07:38:20;;;;;;;18.73;7.85;;;;;;;-3.43;100.00;99709.94;5018688;28;20140;-72
2024/01/18 07:41:06;;;;;;;14.30;5.72;;;;;;;-3.42;100.00;99725.44;5016736;28;20034;-72
2024/01/18 07:43:51;;;;;;;2.63;2.05;;;;;;;-3.36;100.00;99732.31;5017925;28;20042;-72
2024/01/18 07:46:37;;;;;;;3.08;2.33;;;;;;;-3.22;100.00;99729.63;5016912;28;20763;-72
2024/01/18 07:49:23;;;;;;;6.38;2.75;;;;;;;-3.06;100.00;99738.16;5018645;28;20431;-72
2024/01/18 07:52:09;;;;;;;4.03;2.15;;;;;;;-2.89;100.00;99743.22;5020272;28;20404;-72
2024/01/18 07:54:55;;;;;;;4.72;2.30;;;;;;;-2.69;100.00;99752.56;5017917;28;20514;-72
2024/01/18 07:57:41;;;;;;;4.45;2.38;;;;;;;-2.55;100.00;99752.47;5019184;28;20068;-72
2024/01/18 08:00:26;;;;;;;3.08;1.90;;;;;;;-2.42;100.00;99763.56;5017206;28;20033;-72
2024/01/18 08:03:12;;;;;;;3.97;1.90;;;;;;;-2.32;100.00;99757.44;5016121;28;20042;-72
2024/01/18 08:05:58;;;;;;;10.13;3.28;;;;;;;-2.18;100.00;99751.25;5017302;28;20726;-71
2024/01/18 08:08:44;;;;;;;9.40;4.05;;;;;;;-2.03;100.00;99752.78;5018138;28;20091;-71
2024/01/18 08:11:30;;;;;;;23.20;4.00;;;;;;;-1.92;100.00;99766.50;5016270;28;20026;-71
2024/01/18 08:14:15;;;;;;;8.75;3.75;;;;;;;-1.81;100.00;99774.16;5015134;28;20064;-71
2024/01/18 08:17:01;;;;;;;6.50;2.97;;;;;;;-1.72;100.00;99781.00;5015744;28;20048;-71
2024/01/18 08:19:47;;;;;;;4.68;2.88;;;;;;;-1.68;100.00;99787.00;5014979;28;20128;-72
2024/01/18 08:22:32;;;;;;;2.20;1.40;;;;;;;-1.60;100.00;99785.19;5015190;28;20041;-72
2024/01/18 08:25:18;;;;;;;9.32;2.72;;;;;;;-1.46;100.00;99790.22;5026790;28;20053;-72
2024/01/18 08:28:04;;;;;;;0.70;0.70;;;;;;;-1.35;100.00;99776.22;5016267;28;20037;-71
2024/01/18 08:30:50;;;;;;;86.65;5.95;;;;;;;-1.28;100.00;99783.91;5016759;28;20061;-71
2024/01/18 08:33:36;;;;;;;6.90;2.60;;;;;;;-1.25;100.00;99777.81;5013079;28;20045;-72
2024/01/18 08:36:21;;;;;;;12.90;3.17;;;;;;;-1.22;100.00;99782.97;5013999;28;20048;-71
2024/01/18 08:39:07;;;;;;;7.60;2.78;;;;;;;-1.23;100.00;99787.31;5002325;28;20653;-71
2024/01/18 08:41:56;;;;;;;6.75;2.90;;;;;;;-1.26;100.00;99789.94;5012735;28;20037;-71
2024/01/18 08:44:45;;;;;;;7.15;2.92;;;;;;;-1.26;100.00;99805.50;5013568;28;20408;-71
2024/01/18 08:47:32;;;;;;;13.18;3.20;;;;;;;-1.20;100.00;99814.97;5018004;28;20068;-71
2024/01/18 08:50:19;;;;;;;2.88;1.40;;;;;;;-1.14;100.00;99827.88;5017995;28;20033;-70
2024/01/18 08:53:06;;;;;;;1.70;1.27;;;;;;;-1.09;100.00;99827.84;5029894;28;20484;-71
2024/01/18 08:55:52;;;;;;;1.52;1.15;;;;;;;-1.07;100.00;99831.25;5015927;28;20147;-71
2024/01/18 08:58:38;;;;;;;1.10;1.00;;;;;;;-1.02;100.00;99844.19;5017866;28;20033;-71
2024/01/18 09:01:24;;;;;;;4.55;0.88;;;;;;;-1.01;100.00;99846.78;5013055;28;20384;-70
2024/01/18 09:04:09;;;;;;;1.45;0.88;;;;;;;-0.98;100.00;99851.91;5016169;28;20045;-70
2024/01/18 09:06:55;;;;;;;2.55;0.80;;;;;;;-0.97;100.00;99848.44;4998133;28;20046;-70
2024/01/18 09:09:41;;;;;;;5.68;2.38;;;;;;;-0.96;100.00;99844.09;5013892;28;20033;-71
2024/01/18 09:12:27;;;;;;;4.95;1.45;;;;;;;-0.97;100.00;99850.19;5000137;28;20034;-71
2024/01/18 09:15:13;;;;;;;8.07;2.30;;;;;;;-1.01;100.00;99862.34;5010179;28;20045;-69
2024/01/18 09:17:59;;;;;;;8.93;2.75;;;;;;;-1.06;100.00;99855.47;5013563;28;20063;-71
2024/01/18 09:20:45;;;;;;;10.75;3.28;;;;;;;-1.08;100.00;99865.03;5014724;28;20041;-72
2024/01/18 09:23:31;;;;;;;11.32;4.05;;;;;;;-1.11;100.00;99863.34;5012715;28;20523;-71
2024/01/18 09:26:17;;;;;;;10.02;3.80;;;;;;;-1.14;100.00;99866.00;5009915;28;20137;-72
2024/01/18 09:29:03;;;;;;;6.78;2.35;;;;;;;-1.17;100.00;99868.63;5011813;28;20034;-71
2024/01/18 09:31:48;;;;;;;8.18;3.30;;;;;;;-1.19;100.00;99867.78;5013899;28;20045;-71
2024/01/18 09:34:34;;;;;;;9.25;3.45;;;;;;;-1.22;100.00;99871.28;5011662;28;20181;-71
2024/01/18 09:37:20;;;;;;;8.23;3.60;;;;;;;-1.25;100.00;99884.31;5014613;28;20480;-70
2024/01/18 09:40:11;;;;;;;8.25;3.40;;;;;;;-1.27;100.00;99892.13;5014090;28;20029;-71
2024/01/18 09:42:58;;;;;;;8.70;3.78;;;;;;;-1.29;100.00;99906.88;5001122;28;20037;-71
2024/01/18 09:45:46;;;;;;;7.75;2.50;;;;;;;-1.29;100.00;99908.59;4998752;28;20033;-70
2024/01/18 09:48:36;;;;;;;6.40;1.85;;;;;;;-1.29;100.00;99914.66;5013280;28;20053;-71
2024/01/18 09:51:23;;;;;;;5.45;1.42;;;;;;;-1.27;100.00;99917.22;5007477;28;20037;-72
2024/01/18 09:54:09;;;;;;;1.48;1.10;;;;;;;-1.24;100.00;99914.59;4993958;28;20037;-71
2024/01/18 09:56:59;;;;;;;2.00;1.23;;;;;;;-1.23;100.00;99924.97;5008478;28;20115;-71
2024/01/18 09:59:47;;;;;;;4.82;1.30;;;;;;;-1.17;100.00;99938.75;5005330;28;20548;-71
2024/01/18 10:02:33;;;;;;;2.72;1.13;;;;;;;-1.11;100.00;99951.69;5021697;28;20033;-71
2024/01/18 10:05:19;;;;;;;2.50;1.48;;;;;;;-1.04;100.00;99958.53;5008139;28;20053;-70
2024/01/18 10:08:04;;;;;;;1.23;1.10;;;;;;;-0.95;100.00;99967.97;5007280;28;20552;-71
2024/01/18 10:10:50;;;;;;;0.70;0.70;;;;;;;-0.88;100.00;99972.19;5007142;28;20529;-72
2024/01/18 10:13:52;;;;;;;2.80;0.90;;;;;;;-0.78;100.00;99975.53;5024658;28;20138;-72
2024/01/18 10:16:41;;;;;;;1.80;0.60;;;;;;;-0.66;100.00;99986.69;5012861;28;20049;-72
2024/01/18 10:19:27;;;;;;;2.25;0.70;;;;;;;-0.50;100.00;99992.56;4998901;28;20361;-72
2024/01/18 10:22:14;;;;;;;1.85;0.60;;;;;;;-0.35;100.00;100007.06;5012083;28;20034;-71
2024/01/18 10:25:00;;;;;;;0.77;0.57;;;;;;;-0.26;100.00;100006.97;5013283;28;20041;-72
2024/01/18 10:27:46;;;;;;;0.60;0.60;;;;;;;-0.30;100.00;100005.28;4997630;28;20056;-72
2024/01/18 10:30:36;;;;;;;0.55;0.50;;;;;;;-0.36;100.00;100006.22;5014804;28;20165;-71
2024/01/18 10:33:22;;;;;;;0.50;0.50;;;;;;;-0.39;100.00;100008.84;5005475;28;20465;-70
2024/01/18 10:36:08;;;;;;;0.40;0.40;;;;;;;-0.46;100.00;100009.81;5012371;28;20041;-70
2024/01/18 10:38:54;;;;;;;1.65;0.40;;;;;;;-0.49;100.00;100010.72;5010968;28;20099;-70
2024/01/18 10:41:40;;;;;;;0.50;0.50;;;;;;;-0.53;100.00;100009.06;4985814;28;20522;-70
2024/01/18 10:44:26;;;;;;;0.88;0.47;;;;;;;-0.56;100.00;100027.28;5013658;28;20654;-70
2024/01/18 10:47:14;;;;;;;0.88;0.88;;;;;;;-0.60;100.00;100026.44;5013210;28;20103;-70
2024/01/18 10:50:00;;;;;;;5.40;1.70;;;;;;;-0.61;100.00;100036.91;5012713;28;20416;-71
2024/01/18 10:52:47;;;;;;;7.55;1.95;;;;;;;-0.59;100.00;100035.97;5013183;28;20121;-71
2024/01/18 10:55:33;;;;;;;7.57;2.10;;;;;;;-0.56;100.00;100041.16;5008760;28;20037;-70
2024/01/18 10:58:21;;;;;;;1.10;0.95;;;;;;;-0.45;100.00;100059.22;5014552;28;20041;-70
2024/01/18 11:01:10;;;;;;;0.60;0.60;;;;;;;-0.33;100.00;100072.97;5027572;28;20037;-69
2024/01/18 11:03:56;;;;;;;1.40;0.70;;;;;;;-0.23;100.00;100084.97;5010315;28;20937;-69
2024/01/18 11:06:44;;;;;;;0.60;0.60;;;;;;;-0.23;100.00;100095.38;5014061;28;20421;-70
2024/01/18 11:09:30;;;;;;;1.58;0.90;;;;;;;-0.30;100.00;100096.31;5014924;28;20930;-70
2024/01/18 11:12:16;;;;;;;1.67;1.27;;;;;;;-0.36;100.00;100104.19;5013645;28;20041;-71
2024/01/18 11:15:03;;;;;;;0.90;0.70;;;;;;;-0.44;100.00;100094.75;5016799;28;20786;-71
2024/01/18 11:17:54;;;;;;;1.50;0.70;;;;;;;-0.47;100.00;100092.19;5016565;28;20033;-70
2024/01/18 11:20:59;;;;;;;3.15;0.77;;;;;;;-0.47;100.00;100079.19;5016843;28;20866;-70
2024/01/18 11:23:45;;;;;;;2.08;0.73;;;;;;;-0.46;100.00;100083.50;5015778;28;20053;-70
2024/01/18 11:26:34;;;;;;;4.53;0.80;;;;;;;-0.44;100.00;100092.16;5013791;28;21017;-72
2024/01/18 11:29:22;;;;;;;1.13;0.70;;;;;;;-0.43;100.00;100093.88;5004437;28;20039;-72
2024/01/18 11:32:12;;;;;;;1.40;0.93;;;;;;;-0.46;100.00;100088.72;5024596;28;20580;-70
2024/01/18 11:35:11;;;;;;;0.80;0.70;;;;;;;-0.44;100.00;100096.50;5013987;28;20038;-72
2024/01/18 11:38:21;;;;;;;1.25;1.10;;;;;;;-0.48;100.00;100103.44;5012057;28;20048;-72
2024/01/18 11:41:22;;;;;;;5.03;1.30;;;;;;;-0.50;100.00;100110.41;5015716;28;20631;-72
2024/01/18 11:44:10;;;;;;;4.38;1.23;;;;;;;-0.51;100.00;100113.91;5014557;28;20033;-72
2024/01/18 11:46:57;;;;;;;3.38;1.10;;;;;;;-0.53;100.00;100112.19;5013552;28;20088;-72
2024/01/18 11:49:43;;;;;;;2.92;1.15;;;;;;;-0.56;100.00;100116.56;5016694;28;20053;-72
2024/01/18 11:52:31;;;;;;;1.33;0.90;;;;;;;-0.56;100.00;100120.91;5019271;28;20025;-72
2024/01/18 11:55:17;;;;;;;3.53;0.95;;;;;;;-0.57;100.00;100121.78;5018541;28;20037;-72
2024/01/18 11:58:03;;;;;;;6.95;1.10;;;;;;;-0.58;100.00;100122.66;5019626;28;20068;-72
2024/01/18 12:00:49;;;;;;;1.67;0.90;;;;;;;-0.60;100.00;100127.88;5019770;28;20040;-72
2024/01/18 12:03:35;;;;;;;1.95;1.10;;;;;;;-0.59;100.00;100124.38;5020664;28;20408;-72
2024/01/18 12:06:26;;;;;;;3.65;1.58;;;;;;;-0.60;100.00;100134.81;5017565;28;20038;-72
2024/01/18 12:09:12;;;;;;;4.72;1.45;;;;;;;-0.60;100.00;100137.44;5020715;28;20034;-72
2024/01/18 12:11:59;;;;;;;4.00;1.70;;;;;;;-0.60;100.00;100148.66;5018383;28;20038;-73
2024/01/18 12:14:47;;;;;;;7.95;1.85;;;;;;;-0.56;100.00;100152.97;5019958;28;20041;-71
2024/01/18 12:17:33;;;;;;;2.85;1.60;;;;;;;-0.50;100.00;100154.63;5019885;28;20466;-74
2024/01/18 12:20:19;;;;;;;2.05;1.60;;;;;;;-0.48;100.00;100162.44;5020866;28;20041;-73
2024/01/18 12:23:13;;;;;;;5.03;1.27;;;;;;;-0.42;100.00;100162.38;5018036;28;20041;-73
2024/01/18 12:25:59;;;;;;;2.22;0.90;;;;;;;-0.34;100.00;100164.88;5019157;28;21041;-73
2024/01/18 12:28:46;;;;;;;1.17;0.90;;;;;;;-0.27;100.00;100166.53;5020559;28;20037;-73
2024/01/18 12:31:34;;;;;;;6.28;1.20;;;;;;;-0.21;100.00;100176.84;5020129;28;20044;-73
2024/01/18 12:34:20;;;;;;;3.05;1.00;;;;;;;-0.14;100.00;100175.06;5019356;28;20045;-70
2024/01/18 12:37:06;;;;;;;8.50;1.08;;;;;;;-0.06;100.00;100175.81;5020653;28;20037;-71
2024/01/18 12:39:52;;;;;;;5.32;0.98;;;;;;;0.02;100.00;100180.06;5035039;28;20125;-71
2024/01/18 12:42:38;;;;;;;2.55;0.95;;;;;;;0.06;100.00;100184.38;5020574;28;20045;-71
2024/01/18 12:45:24;;;;;;;2.88;1.10;;;;;;;0.07;100.00;100181.75;5019345;28;20041;-71
2024/01/18 12:48:11;;;;;;;3.25;1.42;;;;;;;0.07;100.00;100189.56;5019193;28;20060;-70
2024/01/18 12:50:56;;;;;;;1.45;0.80;;;;;;;0.07;100.00;100194.78;5020973;28;20046;-71
2024/01/18 12:53:42;;;;;;;1.80;1.10;;;;;;;0.06;100.00;100211.25;5020443;28;20564;-70